Time;durP1;ratioP1;P1;durP2;ratioP2;P2;SDS_P1;SDS_P2;PMS_P1;PMS_P2;Temp;Humidity;BMP_temperature;BMP_pressure;BME280_temperature;BME280_humidity;BME280_pressure;Samples;Min_cycle;Max_cycle;Signal;HPM_P1;HPM_P2
2022/09/27 07:39:56;;;;;;;3.77;1.33;;;11.20;99.90;;;;;;6265203;22;20210;-72
2022/09/27 07:42:22;;;;;;;2.60;1.40;;;11.30;99.90;;;;;;6276236;22;20495;-73
2022/09/27 07:44:49;;;;;;;1.40;1.07;;;11.40;99.90;;;;;;6277081;22;20225;-73
2022/09/27 07:47:18;;;;;;;4.13;1.73;;;11.60;99.90;;;;;;6276450;22;20666;-72
2022/09/27 07:49:45;;;;;;;3.70;1.27;;;11.60;99.90;;;;;;6276531;22;20178;-72
2022/09/27 07:52:11;;;;;;;2.23;1.10;;;11.60;99.90;;;;;;6276467;22;20258;-72
2022/09/27 07:54:38;;;;;;;1.83;1.10;;;11.70;99.90;;;;;;6276569;22;20258;-73
2022/09/27 07:57:06;;;;;;;3.80;1.00;;;11.70;99.90;;;;;;6276447;22;20277;-73
2022/09/27 07:59:33;;;;;;;1.23;1.00;;;11.70;99.90;;;;;;6276723;22;20254;-72
2022/09/27 08:02:00;;;;;;;3.63;1.00;;;11.70;99.90;;;;;;6276798;22;20270;-72
2022/09/27 08:04:27;;;;;;;2.33;1.13;;;11.70;99.90;;;;;;6276605;22;20206;-72
2022/09/27 08:06:54;;;;;;;1.33;0.80;;;11.80;99.90;;;;;;6275801;22;20670;-70
2022/09/27 08:09:21;;;;;;;2.50;0.87;;;11.80;99.90;;;;;;6275702;22;20262;-69
2022/09/27 08:11:48;;;;;;;2.73;1.00;;;11.80;99.90;;;;;;6275116;22;20262;-70
2022/09/27 08:14:17;;;;;;;2.13;0.90;;;11.70;99.90;;;;;;6275288;22;20257;-69
2022/09/27 08:16:44;;;;;;;4.57;0.90;;;11.50;99.90;;;;;;6275486;22;20249;-69
2022/09/27 08:19:11;;;;;;;3.40;0.87;;;11.60;99.90;;;;;;6275827;22;20265;-70
2022/09/27 08:21:38;;;;;;;1.13;0.70;;;11.60;99.90;;;;;;6275754;22;20186;-70
2022/09/27 08:24:05;;;;;;;2.10;0.73;;;11.60;99.90;;;;;;6275846;22;20254;-71
2022/09/27 08:26:32;;;;;;;1.57;0.80;;;11.50;99.90;;;;;;6276235;22;20222;-70
2022/09/27 08:28:59;;;;;;;1.77;0.90;;;11.50;99.90;;;;;;6276095;22;20183;-71
2022/09/27 08:31:27;;;;;;;1.23;0.87;;;11.40;99.90;;;;;;6274553;22;20175;-70
2022/09/27 08:33:54;;;;;;;2.63;1.00;;;11.30;99.90;;;;;;6275432;22;20258;-70
2022/09/27 08:36:21;;;;;;;3.93;1.37;;;11.40;99.90;;;;;;6276251;22;20485;-71
2022/09/27 08:38:49;;;;;;;4.43;1.30;;;11.40;99.90;;;;;;6276251;22;20178;-70
2022/09/27 08:41:32;;;;;;;1.20;1.00;;;11.40;99.90;;;;;;6275786;22;20535;-71
2022/09/27 08:44:11;;;;;;;1.43;0.93;;;11.40;99.90;;;;;;6275159;22;20697;-70
2022/09/27 08:46:47;;;;;;;4.57;1.00;;;11.40;99.90;;;;;;6275783;22;20285;-71
2022/09/27 08:49:19;;;;;;;2.63;0.83;;;11.40;99.90;;;;;;6276002;22;20178;-70
2022/09/27 08:51:51;;;;;;;2.97;0.90;;;11.40;99.90;;;;;;6275640;22;20726;-71
2022/09/27 08:54:21;;;;;;;5.60;1.00;;;11.40;99.90;;;;;;6275887;22;20280;-71
2022/09/27 08:56:49;;;;;;;4.23;0.70;;;11.40;99.90;;;;;;6275720;22;20277;-71
2022/09/27 08:59:20;;;;;;;1.10;1.00;;;11.40;99.90;;;;;;6275531;22;20549;-71
2022/09/27 09:01:49;;;;;;;1.10;0.60;;;11.40;99.90;;;;;;6274394;22;20258;-70
2022/09/27 09:04:22;;;;;;;1.63;0.70;;;11.40;99.90;;;;;;6275917;22;20181;-70
2022/09/27 09:06:58;;;;;;;1.77;0.80;;;11.40;99.90;;;;;;6275039;22;20226;-70
2022/09/27 09:09:35;;;;;;;0.80;0.60;;;11.40;99.90;;;;;;6275928;22;20213;-71
2022/09/27 09:15:18;;;;;;;2.77;0.63;;;11.40;99.90;;;;;;6244722;22;20616;-70
2022/09/27 09:17:58;;;;;;;1.77;0.70;;;11.40;99.90;;;;;;6277073;22;20201;-70
2022/09/27 09:20:36;;;;;;;1.30;0.50;;;11.30;99.90;;;;;;6277925;22;20544;-71
2022/09/27 09:23:21;;;;;;;2.80;1.33;;;11.30;99.90;;;;;;6277872;22;20175;-70
2022/09/27 09:25:54;;;;;;;3.57;0.50;;;11.30;99.90;;;;;;6278057;22;20266;-69
2022/09/27 09:28:35;;;;;;;1.50;0.80;;;11.10;99.90;;;;;;6276965;22;20245;-70
2022/09/27 09:31:07;;;;;;;8.17;0.90;;;11.10;99.90;;;;;;6278095;22;20225;-70
2022/09/27 09:33:39;;;;;;;3.50;0.67;;;11.20;99.90;;;;;;6278055;22;20253;-69
2022/09/27 09:36:15;;;;;;;1.43;0.50;;;11.10;99.90;;;;;;6277381;22;20277;-70
2022/09/27 09:38:47;;;;;;;2.13;1.30;;;11.10;99.90;;;;;;6277559;22;20728;-70
2022/09/27 09:41:20;;;;;;;1.47;0.60;;;11.20;99.90;;;;;;6276694;22;20690;-71
2022/09/27 09:43:50;;;;;;;1.53;0.80;;;11.20;99.90;;;;;;6276724;22;20186;-71
2022/09/27 09:46:24;;;;;;;2.10;1.00;;;11.40;99.90;;;;;;6277801;22;20226;-68
2022/09/27 09:48:57;;;;;;;5.03;1.00;;;11.60;99.90;;;;;;6277677;22;20207;-70
2022/09/27 09:51:30;;;;;;;1.77;1.03;;;11.80;99.90;;;;;;6278018;22;20183;-71
2022/09/27 09:54:02;;;;;;;1.97;0.90;;;12.00;99.90;;;;;;6277105;22;20262;-70
2022/09/27 09:56:32;;;;;;;0.73;0.50;;;12.50;99.90;;;;;;6277107;22;20195;-70
2022/09/27 09:59:01;;;;;;;0.80;0.50;;;12.80;99.90;;;;;;6276954;22;20185;-69
2022/09/27 10:01:34;;;;;;;1.83;0.70;;;12.90;99.90;;;;;;6276473;22;20505;-69
2022/09/27 10:04:03;;;;;;;1.23;0.80;;;13.00;99.90;;;;;;6276591;22;20252;-71
2022/09/27 10:06:31;;;;;;;1.40;0.90;;;13.10;99.90;;;;;;6276684;22;20526;-70
2022/09/27 10:08:58;;;;;;;4.80;0.80;;;13.10;99.90;;;;;;6275578;22;20631;-70
2022/09/27 10:11:26;;;;;;;2.60;0.80;;;12.90;99.90;;;;;;6276147;22;20182;-70
2022/09/27 10:13:55;;;;;;;1.33;0.50;;;12.80;99.90;;;;;;6276773;22;20175;-71
2022/09/27 10:16:24;;;;;;;1.97;0.90;;;12.80;99.90;;;;;;6276914;22;20277;-71
2022/09/27 10:18:55;;;;;;;1.90;0.67;;;12.80;99.90;;;;;;6276607;22;20179;-71
2022/09/27 10:21:27;;;;;;;1.23;0.70;;;12.90;99.90;;;;;;6276763;22;20179;-71
2022/09/27 10:24:07;;;;;;;0.43;0.40;;;13.10;99.90;;;;;;6277447;22;20174;-72
2022/09/27 10:26:35;;;;;;;2.10;0.90;;;13.40;99.90;;;;;;6277295;22;20220;-70
2022/09/27 10:29:29;;;;;;;5.03;0.70;;;13.50;99.90;;;;;;6277145;22;20207;-71
2022/09/27 10:31:56;;;;;;;2.60;0.70;;;13.60;99.90;;;;;;6276773;22;20718;-72
2022/09/27 10:34:33;;;;;;;1.40;0.70;;;13.70;99.90;;;;;;6276891;22;20508;-71
2022/09/27 10:37:16;;;;;;;2.07;0.83;;;13.80;99.90;;;;;;6276987;22;20201;-71
2022/09/27 10:39:43;;;;;;;1.67;0.40;;;14.00;99.90;;;;;;6276824;22;20218;-70
2022/09/27 10:42:21;;;;;;;3.53;0.70;;;14.00;99.90;;;;;;6276371;22;20525;-71
2022/09/27 10:44:49;;;;;;;3.73;0.80;;;13.80;99.90;;;;;;6276852;22;20263;-71
2022/09/27 10:47:21;;;;;;;3.30;0.90;;;13.80;99.90;;;;;;6276492;22;20252;-72
2022/09/27 10:49:51;;;;;;;3.40;0.70;;;13.70;99.90;;;;;;6277120;22;20189;-71
2022/09/27 10:52:21;;;;;;;1.17;0.60;;;13.80;99.90;;;;;;6276278;22;20179;-71
2022/09/27 10:54:57;;;;;;;2.90;0.50;;;13.80;99.90;;;;;;6276283;22;20202;-71
2022/09/27 10:57:25;;;;;;;4.60;0.70;;;13.90;99.90;;;;;;6276139;22;20203;-71
2022/09/27 10:59:55;;;;;;;2.53;0.70;;;14.00;99.90;;;;;;6277040;22;20206;-71
2022/09/27 11:02:26;;;;;;;3.53;0.80;;;14.10;99.90;;;;;;6276458;22;20261;-71
2022/09/27 11:05:06;;;;;;;3.00;0.87;;;14.00;99.90;;;;;;6276764;22;20581;-70
2022/09/27 11:07:36;;;;;;;2.10;0.70;;;14.00;99.90;;;;;;6276911;22;20198;-71
2022/09/27 11:10:22;;;;;;;3.03;0.70;;;13.90;99.90;;;;;;6276214;22;20415;-71
2022/09/27 11:13:06;;;;;;;7.10;0.73;;;13.90;99.90;;;;;;6276224;22;20682;-71
2022/09/27 11:15:39;;;;;;;2.10;0.80;;;13.80;99.90;;;;;;6277060;22;20179;-71
2022/09/27 11:18:12;;;;;;;4.17;1.20;;;13.90;99.90;;;;;;6276774;22;20286;-71
2022/09/27 11:20:47;;;;;;;1.20;0.80;;;13.90;99.90;;;;;;6275657;22;20179;-70
2022/09/27 11:23:30;;;;;;;3.23;0.90;;;13.90;99.90;;;;;;6276565;22;20181;-69
2022/09/27 11:26:14;;;;;;;4.17;0.77;;;13.90;99.90;;;;;;6275347;22;20185;-70
2022/09/27 11:28:52;;;;;;;1.37;0.50;;;13.80;99.90;;;;;;6274912;22;20500;-71
2022/09/27 11:31:29;;;;;;;1.47;0.70;;;13.60;99.90;;;;;;6276140;22;20182;-70
2022/09/27 11:34:14;;;;;;;0.90;0.60;;;13.40;99.90;;;;;;6276116;22;20262;-72
2022/09/27 11:36:54;;;;;;;1.00;0.30;;;13.20;99.90;;;;;;6276199;22;20500;-71
2022/09/27 11:39:29;;;;;;;3.40;0.40;;;13.10;99.90;;;;;;6275735;22;20566;-71
2022/09/27 11:42:16;;;;;;;5.70;0.70;;;13.10;99.90;;;;;;6276117;22;20257;-71
2022/09/27 11:44:56;;;;;;;1.07;0.50;;;13.20;99.90;;;;;;6275868;22;20221;-69
2022/09/27 11:47:31;;;;;;;0.50;0.30;;;13.30;99.90;;;;;;6276435;22;20278;-69
2022/09/27 11:50:31;;;;;;;2.70;0.83;;;13.20;99.90;;;;;;6276030;22;20285;-70
2022/09/27 11:53:11;;;;;;;1.37;0.40;;;13.40;99.90;;;;;;6250025;22;20258;-70
2022/09/27 11:55:48;;;;;;;0.53;0.30;;;13.80;99.90;;;;;;6274832;22;20261;-70
2022/09/27 11:58:25;;;;;;;1.17;0.40;;;13.80;99.90;;;;;;6274555;22;20178;-70
2022/09/27 12:01:05;;;;;;;1.40;0.50;;;14.10;99.90;;;;;;6275910;22;20175;-71
2022/09/27 12:03:57;;;;;;;1.27;0.30;;;14.40;99.90;;;;;;6276144;22;20174;-71
2022/09/27 12:06:32;;;;;;;0.23;0.23;;;14.30;99.90;;;;;;6276352;22;20206;-71
2022/09/27 12:09:05;;;;;;;0.27;0.20;;;14.40;99.90;;;;;;6276230;22;20519;-70
2022/09/27 12:11:38;;;;;;;2.00;0.50;;;14.50;99.90;;;;;;6275423;22;20175;-70
2022/09/27 12:14:10;;;;;;;1.77;0.30;;;14.50;99.90;;;;;;6275876;22;20179;-71
2022/09/27 12:16:40;;;;;;;0.70;0.40;;;14.20;99.90;;;;;;6275565;22;20195;-71
2022/09/27 12:19:17;;;;;;;0.50;0.30;;;14.20;99.90;;;;;;6275874;22;20174;-71
2022/09/27 12:21:44;;;;;;;0.93;0.30;;;14.40;99.90;;;;;;6274706;22;20550;-71
2022/09/27 12:24:18;;;;;;;1.47;0.40;;;14.40;99.90;;;;;;6275527;22;20197;-71
2022/09/27 12:26:51;;;;;;;1.00;0.40;;;14.50;99.90;;;;;;6274117;22;20194;-70
2022/09/27 12:29:22;;;;;;;2.10;0.40;;;14.80;99.90;;;;;;6275596;22;20206;-71
2022/09/27 12:31:59;;;;;;;1.33;0.60;;;14.90;99.90;;;;;;6276321;22;20178;-71
2022/09/27 12:34:35;;;;;;;2.53;0.50;;;14.70;99.90;;;;;;6276294;22;20175;-70
2022/09/27 12:37:08;;;;;;;3.70;0.50;;;14.70;99.90;;;;;;6276166;22;20276;-73
2022/09/27 12:39:45;;;;;;;2.17;0.40;;;14.90;99.90;;;;;;6275710;22;20186;-72
2022/09/27 12:42:20;;;;;;;1.57;0.50;;;14.90;99.90;;;;;;6275303;22;20253;-73
2022/09/27 12:44:47;;;;;;;2.03;0.47;;;14.80;99.90;;;;;;6276623;22;20181;-73
2022/09/27 12:47:29;;;;;;;0.60;0.50;;;14.70;99.90;;;;;;6276564;22;20586;-72
2022/09/27 12:50:03;;;;;;;3.83;0.50;;;14.70;99.90;;;;;;6276454;22;20221;-73
2022/09/27 12:52:36;;;;;;;0.70;0.40;;;14.90;99.90;;;;;;6276264;22;20174;-72
2022/09/27 12:55:44;;;;;;;1.17;0.60;;;14.80;99.90;;;;;;6275973;22;20623;-71
2022/09/27 12:58:53;;;;;;;1.90;0.53;;;14.60;99.90;;;;;;6245473;22;20277;-72
2022/09/27 13:01:35;;;;;;;2.93;0.63;;;14.50;99.90;;;;;;6276303;22;20179;-70
2022/09/27 13:04:36;;;;;;;0.77;0.43;;;14.40;99.90;;;;;;6275938;22;20620;-71
2022/09/27 13:07:19;;;;;;;1.80;0.47;;;14.20;99.90;;;;;;6275623;22;20662;-72
2022/09/27 13:10:10;;;;;;;2.23;0.90;;;13.60;99.90;;;;;;6276245;22;20245;-73
2022/09/27 13:12:40;;;;;;;3.13;1.77;;;13.30;99.90;;;;;;6275924;22;20179;-73
2022/09/27 13:15:16;;;;;;;1.77;0.60;;;13.20;99.90;;;;;;6276307;22;20224;-71
2022/09/27 13:17:53;;;;;;;2.57;0.70;;;13.10;99.90;;;;;;6275747;22;20689;-73
2022/09/27 13:20:45;;;;;;;1.37;1.00;;;13.10;99.90;;;;;;6276359;22;20198;-72
2022/09/27 13:24:00;;;;;;;2.47;1.00;;;13.30;99.90;;;;;;6275906;22;20175;-73
2022/09/27 13:26:50;;;;;;;0.67;0.40;;;13.50;99.90;;;;;;6275073;22;20740;-71
2022/09/27 13:29:29;;;;;;;3.60;0.30;;;13.50;99.90;;;;;;6275201;22;20207;-70
2022/09/27 13:32:21;;;;;;;1.30;0.40;;;13.70;99.90;;;;;;6276035;22;20181;-71
2022/09/27 13:34:52;;;;;;;0.83;0.40;;;13.80;99.90;;;;;;6274862;22;20623;-71
2022/09/27 13:37:43;;;;;;;1.33;0.40;;;14.00;99.90;;;;;;6274312;22;20675;-71
2022/09/27 13:40:21;;;;;;;1.80;0.47;;;14.30;99.90;;;;;;6274572;22;20183;-71
2022/09/27 13:43:26;;;;;;;1.60;1.10;;;14.50;99.90;;;;;;6276075;22;20181;-72
2022/09/27 13:45:55;;;;;;;0.70;0.40;;;14.60;99.90;;;;;;6275348;22;20262;-72
2022/09/27 13:48:29;;;;;;;1.13;0.30;;;14.50;99.90;;;;;;6276003;22;20229;-71
2022/09/27 13:51:02;;;;;;;2.50;0.30;;;14.40;99.90;;;;;;6274315;22;20249;-72
2022/09/27 13:53:33;;;;;;;1.90;0.40;;;14.50;99.90;;;;;;6276751;22;20179;-71
2022/09/27 13:56:00;;;;;;;2.93;0.40;;;14.40;99.90;;;;;;6277499;22;20277;-73
2022/09/27 13:58:40;;;;;;;1.33;0.53;;;14.50;99.90;;;;;;6277244;22;20635;-72
2022/09/27 14:01:16;;;;;;;2.07;0.53;;;14.60;99.90;;;;;;6278002;22;20236;-71
2022/09/27 14:03:48;;;;;;;3.23;0.63;;;14.70;99.90;;;;;;6277756;22;20189;-72
2022/09/27 14:06:22;;;;;;;1.07;0.50;;;14.70;99.90;;;;;;6277748;22;20233;-71
2022/09/27 14:08:52;;;;;;;2.07;0.70;;;14.70;99.90;;;;;;6277712;22;20202;-72
2022/09/27 14:11:24;;;;;;;2.13;0.87;;;14.80;99.90;;;;;;6277432;22;20175;-69
2022/09/27 14:13:52;;;;;;;1.63;0.43;;;14.90;99.90;;;;;;6274936;22;20232;-70
2022/09/27 14:16:20;;;;;;;1.57;0.80;;;15.10;99.90;;;;;;6276364;22;20199;-71
2022/09/27 14:18:52;;;;;;;0.97;0.60;;;15.40;99.90;;;;;;6276843;22;20179;-71
2022/09/27 14:21:28;;;;;;;3.97;1.20;;;15.40;99.90;;;;;;6277129;22;20219;-71
2022/09/27 14:24:11;;;;;;;3.77;1.10;;;15.40;99.90;;;;;;6276717;22;20191;-71
2022/09/27 14:26:38;;;;;;;0.80;0.60;;;15.40;99.90;;;;;;6276146;22;20201;-71
2022/09/27 14:29:16;;;;;;;1.43;0.80;;;15.60;99.90;;;;;;6276902;22;20226;-71
2022/09/27 14:31:43;;;;;;;1.57;0.60;;;15.50;99.90;;;;;;6277010;22;20174;-71
2022/09/27 14:34:12;;;;;;;1.97;0.50;;;15.50;99.90;;;;;;6277173;22;20175;-71
2022/09/27 14:39:31;;;;;;;0.93;0.47;;;15.30;99.90;;;;;;6276930;22;20554;-71
2022/09/27 14:41:58;;;;;;;3.00;0.60;;;15.30;99.90;;;;;;6276889;22;20511;-71
2022/09/27 14:44:26;;;;;;;0.80;0.50;;;15.20;99.90;;;;;;6277055;22;20182;-71
2022/09/27 14:47:09;;;;;;;1.10;0.60;;;15.30;99.90;;;;;;6276302;22;20209;-72
2022/09/27 14:49:35;;;;;;;2.70;0.80;;;15.20;99.90;;;;;;6275864;22;20202;-71
2022/09/27 14:52:17;;;;;;;2.70;0.70;;;15.10;99.90;;;;;;6276998;22;20181;-72
2022/09/27 14:54:46;;;;;;;9.30;4.40;;;14.80;99.90;;;;;;6276310;22;20202;-71
2022/09/27 14:57:15;;;;;;;10.33;4.67;;;14.80;99.90;;;;;;6276702;22;20207;-70
2022/09/27 14:59:45;;;;;;;6.43;1.67;;;14.70;99.90;;;;;;6276953;22;20174;-70
2022/09/27 15:02:18;;;;;;;8.13;2.33;;;14.70;99.90;;;;;;6276439;22;20475;-71
2022/09/27 15:04:47;;;;;;;2.90;1.10;;;14.50;99.90;;;;;;6276253;22;20545;-70
2022/09/27 15:07:15;;;;;;;4.33;1.23;;;14.30;99.90;;;;;;6275636;22;20527;-70
2022/09/27 15:09:44;;;;;;;5.27;1.03;;;14.00;99.90;;;;;;6275928;22;20207;-69
2022/09/27 15:12:14;;;;;;;3.40;1.33;;;13.70;99.90;;;;;;6276941;22;20179;-69
2022/09/27 15:14:43;;;;;;;2.00;0.60;;;13.60;99.90;;;;;;6277340;22;20210;-69
2022/09/27 15:17:17;;;;;;;1.87;0.53;;;13.50;99.90;;;;;;6276820;22;20199;-70
2022/09/27 15:19:58;;;;;;;3.53;1.07;;;13.40;99.90;;;;;;6275376;22;20511;-70
2022/09/27 15:22:34;;;;;;;1.20;0.30;;;13.30;99.90;;;;;;6276983;22;20186;-69
2022/09/27 15:25:07;;;;;;;0.60;0.40;;;13.40;99.90;;;;;;6276592;22;20175;-70
2022/09/27 15:27:34;;;;;;;4.37;1.60;;;13.40;99.90;;;;;;6276317;22;20252;-70
2022/09/27 15:30:01;;;;;;;2.90;0.80;;;13.40;99.90;;;;;;6276453;22;20209;-70
2022/09/27 15:32:29;;;;;;;3.37;0.87;;;13.40;99.90;;;;;;6276953;22;20185;-71
2022/09/27 15:34:57;;;;;;;2.83;0.60;;;13.40;99.90;;;;;;6277221;22;20183;-70
2022/09/27 15:37:33;;;;;;;3.37;1.43;;;13.30;99.90;;;;;;6277051;22;20195;-70
2022/09/27 15:40:36;;;;;;;3.13;0.80;;;13.30;99.90;;;;;;6276824;22;20186;-70
2022/09/27 15:43:03;;;;;;;2.67;0.60;;;13.30;99.90;;;;;;6277088;22;20174;-69
2022/09/27 15:45:32;;;;;;;8.23;3.03;;;13.40;99.90;;;;;;6277333;22;20181;-71
2022/09/27 15:48:11;;;;;;;2.47;0.70;;;13.50;99.90;;;;;;6277071;22;20226;-70
2022/09/27 15:50:39;;;;;;;2.10;0.80;;;13.60;99.90;;;;;;6276864;22;20285;-71
2022/09/27 15:53:08;;;;;;;1.77;0.50;;;13.70;99.90;;;;;;6276433;22;20175;-70
2022/09/27 15:55:41;;;;;;;2.53;0.80;;;13.70;99.90;;;;;;6276427;22;20689;-71
2022/09/27 15:58:15;;;;;;;4.70;1.20;;;13.70;99.90;;;;;;6276836;22;20230;-71
2022/09/27 16:00:51;;;;;;;2.20;0.50;;;13.50;99.90;;;;;;6276555;22;20189;-69
2022/09/27 16:03:17;;;;;;;0.80;0.50;;;13.40;99.90;;;;;;6276424;22;20645;-72
2022/09/27 16:05:44;;;;;;;0.90;0.60;;;13.40;99.90;;;;;;6276578;22;20653;-70
2022/09/27 16:08:11;;;;;;;2.23;0.70;;;13.40;99.90;;;;;;6276465;22;20201;-69
2022/09/27 16:10:42;;;;;;;1.20;0.43;;;13.40;99.90;;;;;;6276402;22;20232;-70
2022/09/27 16:13:09;;;;;;;2.10;0.70;;;13.40;99.90;;;;;;6276543;22;20174;-72
2022/09/27 16:15:36;;;;;;;3.53;0.80;;;13.50;99.90;;;;;;6276356;22;20178;-72
2022/09/27 16:18:04;;;;;;;1.40;0.60;;;13.60;99.90;;;;;;6276194;22;20746;-70
2022/09/27 16:20:31;;;;;;;1.67;0.70;;;13.70;99.90;;;;;;6276882;22;20175;-71
2022/09/27 16:22:58;;;;;;;1.70;0.70;;;13.70;99.90;;;;;;6276760;22;20229;-71
2022/09/27 16:25:26;;;;;;;1.63;0.70;;;13.80;99.90;;;;;;6276739;22;20178;-69
2022/09/27 16:27:57;;;;;;;2.93;0.70;;;13.80;99.90;;;;;;6275985;22;20199;-70
2022/09/27 16:30:24;;;;;;;2.80;0.80;;;13.70;99.90;;;;;;6272926;22;20671;-72
2022/09/27 16:32:51;;;;;;;1.47;0.90;;;13.70;99.90;;;;;;6276325;22;20188;-72
2022/09/27 16:35:19;;;;;;;3.80;1.33;;;13.70;99.90;;;;;;6275977;22;20277;-72
2022/09/27 16:37:46;;;;;;;4.40;1.80;;;13.70;99.90;;;;;;6275946;22;20198;-70
2022/09/27 16:40:16;;;;;;;2.83;1.17;;;13.60;99.90;;;;;;6275659;22;20189;-70
2022/09/27 16:42:44;;;;;;;1.43;0.97;;;13.60;99.90;;;;;;6275743;22;20179;-70
2022/09/27 16:45:12;;;;;;;2.80;0.90;;;13.40;99.90;;;;;;6275933;22;20174;-72
2022/09/27 16:47:39;;;;;;;1.90;0.80;;;13.20;99.90;;;;;;6275882;22;20297;-72
2022/09/27 16:52:52;;;;;;;1.83;0.60;;;13.20;99.90;;;;;;6275969;22;20189;-72
2022/09/27 16:55:19;;;;;;;1.97;0.90;;;13.20;99.90;;;;;;6276048;22;20525;-73
2022/09/27 16:57:46;;;;;;;2.07;0.63;;;13.20;99.90;;;;;;6274897;22;20761;-73
2022/09/27 17:00:15;;;;;;;1.00;0.80;;;13.20;99.90;;;;;;6268567;22;20182;-73
2022/09/27 17:02:45;;;;;;;2.03;0.80;;;13.30;99.90;;;;;;6273804;22;20181;-74
2022/09/27 17:05:12;;;;;;;0.90;0.67;;;13.20;99.90;;;;;;6274480;22;20178;-74
2022/09/27 17:07:39;;;;;;;1.07;0.67;;;13.10;99.90;;;;;;6272785;22;20201;-71
2022/09/27 17:10:07;;;;;;;1.70;0.93;;;13.00;99.90;;;;;;6273577;22;20705;-73
2022/09/27 17:12:34;;;;;;;2.47;1.10;;;13.00;99.90;;;;;;6274833;22;20175;-75
2022/09/27 17:15:01;;;;;;;1.30;0.70;;;13.00;99.90;;;;;;6274801;22;20213;-73
2022/09/27 17:17:30;;;;;;;2.83;0.77;;;13.10;99.90;;;;;;6274326;22;20770;-71
2022/09/27 17:19:56;;;;;;;1.40;0.77;;;13.00;99.90;;;;;;6273690;22;20294;-77
2022/09/27 17:22:23;;;;;;;3.27;1.10;;;13.00;99.90;;;;;;6273572;22;20178;-76
2022/09/27 17:24:50;;;;;;;1.57;0.73;;;13.00;99.90;;;;;;6274236;22;20175;-75
2022/09/27 17:27:17;;;;;;;1.10;0.77;;;13.10;99.90;;;;;;6274697;22;20202;-70
2022/09/27 17:29:43;;;;;;;2.13;0.70;;;13.10;99.90;;;;;;6274339;22;20202;-73
2022/09/27 17:32:12;;;;;;;3.50;0.90;;;13.00;99.90;;;;;;6276798;22;20273;-70
2022/09/27 17:34:42;;;;;;;3.37;0.73;;;13.10;99.90;;;;;;6276248;22;20261;-69
2022/09/27 17:37:09;;;;;;;1.80;0.90;;;13.00;99.90;;;;;;6277315;22;20587;-68
2022/09/27 17:39:36;;;;;;;6.27;2.93;;;13.00;99.90;;;;;;6278089;22;20274;-69
2022/09/27 17:42:03;;;;;;;2.97;1.30;;;13.00;99.90;;;;;;6277690;22;20710;-69
2022/09/27 17:44:30;;;;;;;2.13;1.40;;;13.00;99.90;;;;;;6278208;22;20623;-69
2022/09/27 17:52:24;;;;;;;1.73;0.80;;;13.10;99.90;;;;;;6277744;22;20209;-69
2022/09/27 17:54:53;;;;;;;1.73;1.20;;;13.10;99.90;;;;;;6277791;22;20175;-69
2022/09/27 17:57:20;;;;;;;2.40;1.60;;;13.10;99.90;;;;;;6277840;22;20202;-69
2022/09/27 17:59:46;;;;;;;4.63;1.97;;;13.20;99.90;;;;;;6277806;22;20503;-69
2022/09/27 18:02:13;;;;;;;5.27;2.20;;;13.10;99.90;;;;;;6276892;22;20179;-69
2022/09/27 18:04:40;;;;;;;3.03;1.70;;;13.00;99.90;;;;;;6277354;22;20179;-69
2022/09/27 18:07:07;;;;;;;2.33;1.57;;;12.90;99.90;;;;;;6276853;22;20705;-69
2022/09/27 18:09:36;;;;;;;4.07;2.17;;;12.80;99.90;;;;;;6277488;22;20205;-69
2022/09/27 18:12:03;;;;;;;7.87;1.87;;;12.50;99.90;;;;;;6277525;22;20175;-69
2022/09/27 18:14:30;;;;;;;3.10;1.57;;;12.50;99.90;;;;;;6277480;22;20175;-70
2022/09/27 18:16:57;;;;;;;3.53;1.80;;;12.40;99.90;;;;;;6277428;22;20195;-70
2022/09/27 18:19:24;;;;;;;1.67;1.27;;;12.40;99.90;;;;;;6277921;22;20174;-69
2022/09/27 18:21:51;;;;;;;3.57;2.00;;;12.30;99.90;;;;;;6277735;22;20179;-70
2022/09/27 18:24:18;;;;;;;4.57;1.57;;;12.10;99.90;;;;;;6277831;22;20181;-70
2022/09/27 18:26:47;;;;;;;1.97;1.10;;;11.90;99.90;;;;;;6277137;22;20201;-70
2022/09/27 18:29:17;;;;;;;1.60;1.17;;;11.60;99.90;;;;;;6269074;22;20270;-69
2022/09/27 18:31:44;;;;;;;1.67;0.60;;;11.40;99.90;;;;;;6275552;22;20206;-70
2022/09/27 18:34:10;;;;;;;2.53;0.90;;;11.30;99.90;;;;;;6276115;22;20214;-70
2022/09/27 18:36:39;;;;;;;1.87;0.60;;;11.20;99.90;;;;;;6275036;22;20195;-70
2022/09/27 18:39:08;;;;;;;1.93;1.00;;;11.10;99.90;;;;;;6275445;22;20175;-70
2022/09/27 18:41:35;;;;;;;1.87;0.90;;;11.00;99.90;;;;;;6275596;22;20175;-69
2022/09/27 18:44:05;;;;;;;3.80;0.87;;;10.90;99.90;;;;;;6274394;22;20499;-69
2022/09/27 18:46:34;;;;;;;2.40;0.80;;;10.90;99.90;;;;;;6275095;22;20202;-68
2022/09/27 18:49:02;;;;;;;0.80;0.60;;;11.00;99.90;;;;;;6274812;22;20240;-69
2022/09/27 18:51:29;;;;;;;1.33;1.07;;;10.90;99.90;;;;;;6275461;22;20221;-69
2022/09/27 18:53:58;;;;;;;1.10;0.50;;;10.90;99.90;;;;;;6275347;22;20182;-68
2022/09/27 18:56:26;;;;;;;0.80;0.60;;;10.90;99.90;;;;;;6274981;22;20198;-69
2022/09/27 18:58:53;;;;;;;3.10;0.70;;;10.90;99.90;;;;;;6274710;22;20181;-69
2022/09/27 19:01:22;;;;;;;1.67;0.83;;;10.80;99.90;;;;;;6275276;22;20175;-69
2022/09/27 19:03:49;;;;;;;2.33;0.80;;;10.80;99.90;;;;;;6275336;22;20511;-71
2022/09/27 19:06:18;;;;;;;3.70;1.20;;;10.80;99.90;;;;;;6275097;22;20667;-69
2022/09/27 19:08:46;;;;;;;2.03;1.10;;;10.80;99.90;;;;;;6275470;22;20178;-69
2022/09/27 19:11:14;;;;;;;2.23;0.90;;;10.80;99.90;;;;;;6275339;22;20207;-70
2022/09/27 19:13:42;;;;;;;3.03;1.23;;;10.80;99.90;;;;;;6275224;22;20175;-69
2022/09/27 19:16:09;;;;;;;5.47;1.87;;;10.70;99.90;;;;;;6274944;22;20186;-68
2022/09/27 19:18:38;;;;;;;4.83;1.57;;;10.70;99.90;;;;;;6275262;22;20274;-69
2022/09/27 19:21:07;;;;;;;2.80;1.73;;;10.60;99.90;;;;;;6275403;22;20175;-68
2022/09/27 19:23:34;;;;;;;2.73;1.30;;;10.70;99.90;;;;;;6275817;22;20179;-70
2022/09/27 19:26:01;;;;;;;2.07;1.50;;;10.70;99.90;;;;;;6275362;22;20552;-70
2022/09/27 19:28:32;;;;;;;3.07;1.50;;;10.60;99.90;;;;;;6275068;22;20707;-69
2022/09/27 19:30:59;;;;;;;5.43;1.53;;;10.70;99.90;;;;;;6274777;22;20206;-69
2022/09/27 19:33:26;;;;;;;2.87;1.20;;;10.70;99.90;;;;;;6275161;22;20253;-69
2022/09/27 19:35:59;;;;;;;3.00;1.40;;;10.70;99.90;;;;;;6274180;22;20175;-69
2022/09/27 19:38:26;;;;;;;2.90;1.53;;;10.70;99.90;;;;;;6275452;22;20181;-69
2022/09/27 19:40:53;;;;;;;2.97;1.53;;;10.70;99.90;;;;;;6274920;22;20187;-70
2022/09/27 19:43:20;;;;;;;2.00;1.23;;;10.80;99.90;;;;;;6275162;22;20196;-69
2022/09/27 19:45:47;;;;;;;3.30;1.40;;;10.80;99.90;;;;;;6275264;22;20175;-69
2022/09/27 19:48:13;;;;;;;3.27;2.03;;;10.90;99.90;;;;;;6274922;22;20194;-69
2022/09/27 19:50:42;;;;;;;4.53;2.10;;;11.10;99.90;;;;;;6274351;22;20202;-69
2022/09/27 19:53:11;;;;;;;2.57;1.70;;;11.20;99.90;;;;;;6274998;22;20190;-69
2022/09/27 19:55:37;;;;;;;3.30;1.70;;;11.20;99.90;;;;;;6274766;22;20185;-69
2022/09/27 19:58:04;;;;;;;3.20;1.50;;;11.10;99.90;;;;;;6274304;22;20671;-68
2022/09/27 20:00:31;;;;;;;2.20;1.30;;;10.90;99.90;;;;;;6275110;22;20182;-69
2022/09/27 20:02:58;;;;;;;3.30;1.10;;;10.80;99.90;;;;;;6275054;22;20261;-71
2022/09/27 20:05:25;;;;;;;2.00;1.23;;;10.70;99.90;;;;;;6274110;22;20178;-69
2022/09/27 20:07:52;;;;;;;1.80;0.80;;;10.60;99.90;;;;;;6274743;22;20198;-69
2022/09/27 20:10:20;;;;;;;1.47;0.73;;;10.40;99.90;;;;;;6274497;22;20270;-68
2022/09/27 20:12:50;;;;;;;1.47;0.60;;;10.20;99.90;;;;;;6274480;22;20175;-69
2022/09/27 20:15:17;;;;;;;1.57;0.80;;;10.20;99.90;;;;;;6274692;22;20479;-69
2022/09/27 20:17:44;;;;;;;1.90;0.60;;;10.10;99.90;;;;;;6275101;22;20281;-69
2022/09/27 20:20:11;;;;;;;2.20;0.83;;;10.00;99.90;;;;;;6274212;22;20181;-69
2022/09/27 20:22:38;;;;;;;2.13;0.80;;;10.00;99.90;;;;;;6274983;22;20202;-70
2022/09/27 20:25:06;;;;;;;1.30;0.70;;;10.00;99.90;;;;;;6274486;22;20270;-69
2022/09/27 20:27:34;;;;;;;1.10;0.67;;;9.90;99.90;;;;;;6274446;22;20194;-69
2022/09/27 20:30:01;;;;;;;2.00;1.13;;;9.90;99.90;;;;;;6275243;22;20175;-71
2022/09/27 20:32:28;;;;;;;2.57;0.80;;;9.90;99.90;;;;;;6274583;22;20206;-71
2022/09/27 20:34:55;;;;;;;2.20;0.80;;;10.00;99.90;;;;;;6274439;22;20174;-69
2022/09/27 20:37:21;;;;;;;2.60;1.00;;;10.00;99.90;;;;;;6273567;22;20194;-70
2022/09/27 20:39:48;;;;;;;1.77;1.07;;;10.00;99.90;;;;;;6273497;22;20310;-70
2022/09/27 20:42:15;;;;;;;1.37;0.87;;;10.00;99.90;;;;;;6274217;22;20231;-69
2022/09/27 20:44:43;;;;;;;1.83;0.83;;;10.10;99.90;;;;;;6274318;22;20175;-70
2022/09/27 20:47:10;;;;;;;2.80;1.10;;;10.20;99.90;;;;;;6274532;22;20205;-69
2022/09/27 20:49:37;;;;;;;3.43;1.33;;;10.20;99.90;;;;;;6269688;22;20181;-69
2022/09/27 20:52:04;;;;;;;1.37;0.80;;;10.20;99.90;;;;;;6274871;22;20217;-69
2022/09/27 20:54:31;;;;;;;1.57;0.90;;;10.40;99.90;;;;;;6275000;22;20178;-69
2022/09/27 20:56:58;;;;;;;1.57;1.07;;;10.30;99.90;;;;;;6273625;22;20206;-69
2022/09/27 20:59:25;;;;;;;3.50;0.80;;;10.20;99.90;;;;;;6274447;22;20179;-69
2022/09/27 21:01:53;;;;;;;1.50;0.87;;;10.30;99.90;;;;;;6274418;22;20185;-69
2022/09/27 21:04:22;;;;;;;2.73;0.90;;;10.40;99.90;;;;;;6278060;22;20635;-69